Time,TemperatureF,DewpointF,PressureIn,WindDirection,WindDirectionDegrees,WindSpeedMPH,WindSpeedGustMPH,Humidity,HourlyPrecipIn,Conditions,Clouds,dailyrainin,SoftwareType,DateUTC
2013-02-12 00:12:00,23.9,21.0,30.03,NNW,336,0.0,0.0,88,0.00,,,0.00,weatherlink.com 1.10,2013-02-12 06:12:00,
2013-02-12 00:27:00,23.2,20.0,30.03,NNW,335,0.0,0.0,88,0.00,,,0.00,weatherlink.com 1.10,2013-02-12 06:27:00,
2013-02-12 00:42:00,23.0,20.0,30.02,NNW,336,0.0,0.0,89,0.00,,,0.00,weatherlink.com 1.10,2013-02-12 06:42:00,
2013-02-12 00:57:00,23.2,21.0,30.03,NNW,337,0.0,0.0,89,0.00,,,0.00,weatherlink.com 1.10,2013-02-12 06:57:00,
2013-02-12 01:12:00,22.7,20.0,30.03,NNW,337,0.0,0.0,89,0.00,,,0.00,weatherlink.com 1.10,2013-02-12 07:12:00,
2013-02-12 01:27:00,22.7,21.0,30.03,NNW,337,0.0,0.0,91,0.00,,,0.00,weatherlink.com 1.10,2013-02-12 07:27:00,
2013-02-12 01:42:00,22.2,20.0,30.03,NNW,337,0.0,0.0,90,0.00,,,0.00,weatherlink.com 1.10,2013-02-12 07:42:00,
2013-02-12 01:57:00,21.7,19.0,30.02,NNW,337,0.0,0.0,90,0.00,,,0.00,weatherlink.com 1.10,2013-02-12 07:57:00,
2013-02-12 02:12:00,22.1,20.0,30.02,NNW,337,0.0,0.0,91,0.00,,,0.00,weatherlink.com 1.10,2013-02-12 08:12:00,
2013-02-12 02:27:00,21.9,20.0,30.01,NNW,337,0.0,1.0,90,0.00,,,0.00,weatherlink.com 1.10,2013-02-12 08:27:00,
2013-02-12 02:42:00,21.7,20.0,30.01,SSE,150,0.0,1.0,91,0.00,,,0.00,weatherlink.com 1.10,2013-02-12 08:42:00,
2013-02-12 02:57:00,21.5,19.0,30.01,SSE,150,0.0,1.0,91,0.00,,,0.00,weatherlink.com 1.10,2013-02-12 08:57:00,
2013-02-12 03:12:00,21.5,19.0,30.00,SE,137,0.0,1.0,91,0.00,,,0.00,weatherlink.com 1.10,2013-02-12 09:12:00,
2013-02-12 03:27:00,21.3,19.0,29.99,SE,134,0.0,0.0,91,0.00,,,0.00,weatherlink.com 1.10,2013-02-12 09:27:00,
2013-02-12 03:42:00,21.8,20.0,29.97,SE,134,0.0,0.0,91,0.00,,,0.00,weatherlink.com 1.10,2013-02-12 09:42:00,
2013-02-12 03:57:00,21.9,20.0,29.96,SE,134,0.0,0.0,90,0.00,,,0.00,weatherlink.com 1.10,2013-02-12 09:57:00,
2013-02-12 04:12:00,21.7,19.0,29.97,SE,134,0.0,0.0,90,0.00,,,0.00,weatherlink.com 1.10,2013-02-12 10:12:00,
2013-02-12 04:27:00,20.9,19.0,29.98,SSE,154,0.0,1.0,90,0.00,,,0.00,weatherlink.com 1.10,2013-02-12 10:27:00,
2013-02-12 04:43:00,20.5,18.0,29.98,SE,145,0.0,0.0,90,0.00,,,0.00,weatherlink.com 1.10,2013-02-12 10:43:00,
2013-02-12 04:57:00,21.0,19.0,29.99,SE,139,0.0,3.0,92,0.00,,,0.00,weatherlink.com 1.10,2013-02-12 10:57:00,
2013-02-12 05:12:00,21.2,19.0,29.98,SSE,158,0.0,1.0,91,0.00,,,0.00,weatherlink.com 1.10,2013-02-12 11:12:00,
2013-02-12 05:27:00,21.3,19.0,29.98,SSW,195,0.0,1.0,91,0.00,,,0.00,weatherlink.com 1.10,2013-02-12 11:27:00,
2013-02-12 05:42:00,21.4,19.0,29.99,SSE,160,0.0,2.0,91,0.00,,,0.00,weatherlink.com 1.10,2013-02-12 11:42:00,
2013-02-12 05:58:00,21.3,19.0,29.99,SSE,163,0.0,2.0,90,0.00,,,0.00,weatherlink.com 1.10,2013-02-12 11:58:00,
2013-02-12 06:12:00,21.5,19.0,29.99,SSE,158,0.0,2.0,90,0.00,,,0.00,weatherlink.com 1.10,2013-02-12 12:12:00,
2013-02-12 06:27:00,22.2,20.0,29.98,South,188,4.0,6.0,91,0.00,,,0.00,weatherlink.com 1.10,2013-02-12 12:27:00,
2013-02-12 06:43:00,23.1,20.0,29.98,SSW,205,2.0,4.0,89,0.00,,,0.00,weatherlink.com 1.10,2013-02-12 12:43:00,
2013-02-12 06:57:00,22.9,20.0,29.98,SSW,193,0.0,1.0,88,0.00,,,0.00,weatherlink.com 1.10,2013-02-12 12:57:00,
2013-02-12 07:12:00,22.4,19.0,29.97,South,190,0.0,2.0,88,0.00,,,0.00,weatherlink.com 1.10,2013-02-12 13:12:00,
2013-02-12 07:27:00,21.9,19.0,29.96,SSW,203,0.0,1.0,89,0.00,,,0.00,weatherlink.com 1.10,2013-02-12 13:27:00,
2013-02-12 07:43:00,22.9,20.0,29.95,SSW,205,0.0,0.0,89,0.00,,,0.00,weatherlink.com 1.10,2013-02-12 13:43:00,
2013-02-12 07:57:00,24.0,21.0,29.95,SSE,156,0.0,0.0,87,0.00,,,0.00,weatherlink.com 1.10,2013-02-12 13:57:00,
2013-02-12 08:12:00,24.8,22.0,29.95,SSE,167,2.0,3.0,87,0.00,,,0.00,weatherlink.com 1.10,2013-02-12 14:12:00,
2013-02-12 08:28:00,27.0,23.0,29.94,SSE,167,0.0,1.0,86,0.00,,,0.00,weatherlink.com 1.10,2013-02-12 14:28:00,
2013-02-12 08:43:00,28.0,24.0,29.94,SSW,200,4.0,8.0,84,0.00,,,0.00,weatherlink.com 1.10,2013-02-12 14:43:00,
2013-02-12 08:58:00,29.4,25.0,29.94,SSW,200,2.0,7.0,83,0.00,,,0.00,weatherlink.com 1.10,2013-02-12 14:58:00,
2013-02-12 09:13:00,30.3,25.0,29.96,South,187,12.0,15.0,80,0.00,,,0.00,weatherlink.com 1.10,2013-02-12 15:13:00,
2013-02-12 09:28:00,30.5,25.0,29.94,South,191,2.0,12.0,80,0.00,,,0.00,weatherlink.com 1.10,2013-02-12 15:28:00,
2013-02-12 09:43:00,32.3,26.0,29.95,SE,134,1.0,6.0,79,0.00,,,0.00,weatherlink.com 1.10,2013-02-12 15:43:00,
2013-02-12 09:58:00,34.1,27.0,29.93,ESE,121,5.0,10.0,74,0.00,,,0.00,weatherlink.com 1.10,2013-02-12 15:58:00,
2013-02-12 10:13:00,35.8,28.0,29.93,SW,222,3.0,5.0,72,0.00,,,0.00,weatherlink.com 1.10,2013-02-12 16:13:00,
2013-02-12 10:28:00,37.6,27.0,29.93,SSW,204,4.0,8.0,66,0.00,,,0.00,weatherlink.com 1.10,2013-02-12 16:28:00,
2013-02-12 10:43:00,39.2,28.0,29.94,North,11,1.0,5.0,64,0.00,,,0.00,weatherlink.com 1.10,2013-02-12 16:43:00,
2013-02-12 10:58:00,40.2,27.0,29.93,West,263,4.0,7.0,60,0.00,,,0.00,weatherlink.com 1.10,2013-02-12 16:58:00,
2013-02-12 11:13:00,41.5,27.0,29.93,ESE,108,3.0,10.0,57,0.00,,,0.00,weatherlink.com 1.10,2013-02-12 17:13:00,
2013-02-12 11:28:00,42.3,26.0,29.94,ESE,113,2.0,9.0,52,0.00,,,0.00,weatherlink.com 1.10,2013-02-12 17:28:00,
2013-02-12 11:44:00,43.6,26.0,29.93,WSW,257,2.0,9.0,51,0.00,,,0.00,weatherlink.com 1.10,2013-02-12 17:44:00,
2013-02-12 11:58:00,44.1,26.0,29.92,East,86,3.0,9.0,49,0.00,,,0.00,weatherlink.com 1.10,2013-02-12 17:58:00,
2013-02-12 12:14:00,44.9,26.0,29.91,South,177,2.0,9.0,47,0.00,,,0.00,weatherlink.com 1.10,2013-02-12 18:14:00,
2013-02-12 12:29:00,45.1,25.0,29.89,SSW,200,4.0,9.0,46,0.00,,,0.00,weatherlink.com 1.10,2013-02-12 18:29:00,
2013-02-12 12:43:00,44.8,25.0,29.87,SSE,152,4.0,11.0,46,0.00,,,0.00,weatherlink.com 1.10,2013-02-12 18:43:00,
2013-02-12 12:59:00,45.5,26.0,29.86,NNW,330,9.0,10.0,46,0.00,,,0.00,weatherlink.com 1.10,2013-02-12 18:59:00,
2013-02-12 13:14:00,45.9,26.0,29.86,WNW,286,5.0,11.0,46,0.00,,,0.00,weatherlink.com 1.10,2013-02-12 19:14:00,
2013-02-12 13:29:00,46.4,26.0,29.84,NNW,346,3.0,12.0,45,0.00,,,0.00,weatherlink.com 1.10,2013-02-12 19:29:00,
2013-02-12 13:44:00,46.7,25.0,29.84,SSW,193,5.0,14.0,42,0.00,,,0.00,weatherlink.com 1.10,2013-02-12 19:44:00,
2013-02-12 13:59:00,47.1,25.0,29.83,SSE,162,3.0,11.0,43,0.00,,,0.00,weatherlink.com 1.10,2013-02-12 19:59:00,
2013-02-12 14:15:00,47.2,26.0,29.82,West,278,4.0,15.0,43,0.00,,,0.00,weatherlink.com 1.10,2013-02-12 20:15:00,
2013-02-12 14:29:00,47.5,26.0,29.81,East,93,4.0,11.0,44,0.00,,,0.00,weatherlink.com 1.10,2013-02-12 20:29:00,
2013-02-12 14:44:00,47.6,26.0,29.81,NW,308,4.0,8.0,43,0.00,,,0.00,weatherlink.com 1.10,2013-02-12 20:44:00,
2013-02-12 14:59:00,48.0,27.0,29.80,West,281,4.0,10.0,44,0.00,,,0.00,weatherlink.com 1.10,2013-02-12 20:59:00,
2013-02-12 15:14:00,47.6,26.0,29.80,East,81,1.0,14.0,44,0.00,,,0.00,weatherlink.com 1.10,2013-02-12 21:14:00,
2013-02-12 15:29:00,47.5,26.0,29.80,ENE,71,3.0,13.0,44,0.00,,,0.00,weatherlink.com 1.10,2013-02-12 21:29:00,
2013-02-12 15:44:00,47.7,27.0,29.80,WNW,294,5.0,9.0,44,0.00,,,0.00,weatherlink.com 1.10,2013-02-12 21:44:00,
2013-02-12 15:59:00,47.4,26.0,29.79,SE,125,5.0,11.0,44,0.00,,,0.00,weatherlink.com 1.10,2013-02-12 21:59:00,
2013-02-12 16:14:00,46.9,26.0,29.79,NW,314,4.0,8.0,45,0.00,,,0.00,weatherlink.com 1.10,2013-02-12 22:14:00,
2013-02-12 16:29:00,46.8,26.0,29.79,NW,320,0.0,5.0,45,0.00,,,0.00,weatherlink.com 1.10,2013-02-12 22:29:00,
2013-02-12 16:44:00,46.2,27.0,29.78,NNW,342,3.0,3.0,47,0.00,,,0.00,weatherlink.com 1.10,2013-02-12 22:44:00,
2013-02-12 16:59:00,46.0,26.0,29.78,West,266,2.0,8.0,45,0.00,,,0.00,weatherlink.com 1.10,2013-02-12 22:59:00,
2013-02-12 17:14:00,45.6,26.0,29.78,NNE,15,0.0,4.0,46,0.00,,,0.00,weatherlink.com 1.10,2013-02-12 23:14:00,
2013-02-12 17:29:00,44.7,25.0,29.78,NW,314,2.0,4.0,46,0.00,,,0.00,weatherlink.com 1.10,2013-02-12 23:29:00,
2013-02-12 17:44:00,43.8,25.0,29.78,North,349,0.0,1.0,47,0.00,,,0.00,weatherlink.com 1.10,2013-02-12 23:44:00,
2013-02-12 17:59:00,43.1,24.0,29.78,SW,233,3.0,3.0,47,0.00,,,0.00,weatherlink.com 1.10,2013-02-12 23:59:00,
2013-02-12 18:14:00,42.5,24.0,29.77,WSW,238,1.0,5.0,49,0.00,,,0.00,weatherlink.com 1.10,2013-02-13 00:14:00,
2013-02-12 18:29:00,41.3,24.0,29.77,SW,226,3.0,3.0,50,0.00,,,0.00,weatherlink.com 1.10,2013-02-13 00:29:00,
2013-02-12 18:44:00,40.4,24.0,29.77,NE,34,0.0,4.0,53,0.00,,,0.00,weatherlink.com 1.10,2013-02-13 00:44:00,
2013-02-12 18:59:00,39.5,23.0,29.78,SW,218,1.0,2.0,53,0.00,,,0.00,weatherlink.com 1.10,2013-02-13 00:59:00,
2013-02-12 19:14:00,39.1,23.0,29.78,NE,34,0.0,3.0,53,0.00,,,0.00,weatherlink.com 1.10,2013-02-13 01:14:00,
2013-02-12 19:30:00,38.9,23.0,29.77,North,358,0.0,3.0,53,0.00,,,0.00,weatherlink.com 1.10,2013-02-13 01:30:00,
2013-02-12 19:44:00,38.1,23.0,29.78,WNW,290,2.0,2.0,55,0.00,,,0.00,weatherlink.com 1.10,2013-02-13 01:44:00,
2013-02-12 19:59:00,37.5,23.0,29.78,WNW,300,3.0,6.0,57,0.00,,,0.00,weatherlink.com 1.10,2013-02-13 01:59:00,
2013-02-12 20:14:00,36.7,23.0,29.78,WNW,302,3.0,4.0,59,0.00,,,0.00,weatherlink.com 1.10,2013-02-13 02:14:00,
2013-02-12 20:29:00,35.9,23.0,29.79,NW,304,3.0,3.0,60,0.00,,,0.00,weatherlink.com 1.10,2013-02-13 02:29:00,
2013-02-12 20:44:00,35.5,23.0,29.79,NW,322,1.0,2.0,61,0.00,,,0.00,weatherlink.com 1.10,2013-02-13 02:44:00,
2013-02-12 20:59:00,34.7,23.0,29.79,WNW,290,1.0,3.0,62,0.00,,,0.00,weatherlink.com 1.10,2013-02-13 02:59:00,
2013-02-12 21:14:00,33.9,23.0,29.79,West,260,0.0,1.0,64,0.00,,,0.00,weatherlink.com 1.10,2013-02-13 03:14:00,
2013-02-12 21:30:00,33.2,23.0,29.79,WNW,283,0.0,2.0,65,0.00,,,0.00,weatherlink.com 1.10,2013-02-13 03:30:00,
2013-02-12 21:44:00,33.4,23.0,29.80,NW,318,2.0,5.0,65,0.00,,,0.00,weatherlink.com 1.10,2013-02-13 03:44:00,
2013-02-12 22:00:00,33.9,23.0,29.79,NW,316,2.0,5.0,64,0.00,,,0.00,weatherlink.com 1.10,2013-02-13 04:00:00,
2013-02-12 22:14:00,33.5,23.0,29.79,NW,316,2.0,3.0,65,0.00,,,0.00,weatherlink.com 1.10,2013-02-13 04:14:00,
2013-02-12 22:29:00,33.6,23.0,29.79,NW,310,2.0,4.0,65,0.00,,,0.00,weatherlink.com 1.10,2013-02-13 04:29:00,
2013-02-12 22:44:00,32.8,23.0,29.79,NW,310,0.0,1.0,66,0.00,,,0.00,weatherlink.com 1.10,2013-02-13 04:44:00,
2013-02-12 22:59:00,31.2,22.0,29.79,NW,311,0.0,0.0,70,0.00,,,0.00,weatherlink.com 1.10,2013-02-13 04:59:00,
2013-02-12 23:15:00,29.8,22.0,29.79,WSW,240,0.0,0.0,72,0.00,,,0.00,weatherlink.com 1.10,2013-02-13 05:15:00,
2013-02-12 23:29:00,28.6,22.0,29.78,WSW,239,0.0,0.0,75,0.00,,,0.00,weatherlink.com 1.10,2013-02-13 05:29:00,
2013-02-12 23:45:00,28.0,22.0,29.78,WSW,239,0.0,0.0,77,0.00,,,0.00,weatherlink.com 1.10,2013-02-13 05:45:00,
2013-02-12 23:59:00,27.7,22.0,29.78,SSW,212,0.0,1.0,79,0.00,,,0.00,weatherlink.com 1.10,2013-02-13 05:59:00,